createdAt,value
2023-01-27T08:56:43.222Z,2.33
2023-01-27T09:01:01.654Z,2.63
2023-01-27T09:05:18.723Z,2.50
2023-01-27T09:14:18.047Z,2.50
2023-01-27T09:18:31.335Z,2.47
2023-01-27T10:02:13.555Z,3.47
2023-01-27T12:09:05.609Z,1.20
2023-01-27T12:13:21.058Z,1.27
2023-01-27T12:17:48.031Z,1.20
2023-01-27T12:22:01.927Z,1.40
2023-01-27T12:26:16.435Z,1.47
2023-01-27T12:30:30.049Z,1.50
2023-01-27T12:34:41.589Z,1.20
2023-01-27T12:38:59.472Z,1.23
2023-01-27T12:43:16.134Z,1.30
2023-01-27T12:47:28.811Z,1.27
2023-01-27T12:51:42.290Z,1.00
2023-01-27T12:56:11.431Z,1.20
2023-01-27T13:00:21.212Z,1.23
2023-01-27T13:04:32.090Z,1.10
2023-01-27T13:08:53.448Z,1.27
2023-01-27T13:19:04.491Z,1.40
2023-01-27T13:24:13.151Z,1.43
2023-01-27T13:28:39.709Z,1.50
2023-01-27T13:33:16.431Z,1.50
2023-01-27T13:38:20.524Z,3.07
2023-01-27T13:42:59.794Z,1.53
2023-01-27T13:47:25.061Z,1.40
2023-01-27T13:51:38.661Z,1.57
2023-01-27T13:56:20.372Z,1.47
2023-01-27T14:00:53.087Z,1.67
2023-01-27T14:06:13.468Z,1.57
2023-01-27T14:11:06.930Z,1.57
2023-01-27T14:15:30.327Z,1.80
2023-01-27T14:25:00.441Z,1.10
2023-01-27T14:29:58.109Z,1.00
2023-01-27T14:34:38.850Z,1.17
2023-01-27T15:09:55.598Z,0.93
2023-01-27T15:14:59.169Z,1.00
2023-01-27T15:25:20.276Z,1.30
2023-01-27T15:29:32.230Z,2.50
2023-01-27T15:33:52.308Z,2.97
2023-01-27T15:38:25.872Z,2.47
2023-01-27T15:53:11.919Z,1.40
2023-01-27T15:58:12.484Z,1.37
2023-01-27T17:06:24.655Z,3.07
2023-01-27T17:20:41.237Z,2.60
2023-01-27T17:24:55.020Z,4.70
2023-01-27T17:29:05.679Z,4.77
2023-01-27T17:49:04.131Z,3.43
2023-01-27T22:29:24.816Z,6.13
2023-01-27T22:33:37.435Z,6.33
2023-01-27T22:37:54.711Z,6.57
2023-01-27T22:47:09.271Z,6.17
2023-01-27T22:51:20.820Z,6.13
2023-01-27T22:55:31.442Z,5.67
2023-01-27T22:59:44.822Z,5.83
2023-01-27T23:03:59.346Z,6.03
2023-01-27T23:08:09.411Z,6.23
2023-01-27T23:12:20.393Z,6.70
2023-01-27T23:16:31.109Z,6.40
2023-01-27T23:20:44.306Z,5.50
2023-01-27T23:24:55.440Z,6.97
2023-01-27T23:29:19.365Z,7.17
2023-01-27T23:33:37.155Z,7.30
2023-01-27T23:37:49.613Z,6.77
2023-01-27T23:42:02.432Z,6.47
2023-01-27T23:46:16.410Z,5.87
2023-01-27T23:50:28.355Z,5.70
2023-01-27T23:54:41.276Z,5.97
2023-01-27T23:58:53.552Z,6.70
